Pleasant Mount, Pennsylvania
Current Conditions -  °F | °C
As of 4:54 PM on Monday 24 Nov 2014 (Local Time) from KAVP Reporting Station
Clear Clear  
Wind Chill: 65°   Ceiling: Unl
Heat Index: 65°   Visibility: 10mi
Dew Point: 51°   Wind: 17mph
Humidity: 61%   Direction: 210°SSW
Pressure: 29.54"   Gusts: 29mph
Location:  41.74°N, 75.43°W
Report Text: KAVP 242154Z 21015G25KT 10SM CLR 18/11 A2954 RMK AO2 PK WND 21028/2137 SLP995 T01830106
Loading
Personal Weather Stations






























Interactive Weather Map New forecast layout! Learn more

10-Day Weather Forecast

Advertisements
Track Severe Weather on mobile